Аэропорт: Кемерово. Кемерово

ICAO: UNEE

METAR:
2019/03/24 18:00
UNEE 241800Z 25003MPS CAVOK M01/M03 Q1016 R23/CLRD60 NOSIG RMK QFE739
METAR:
2019/03/24 18:21
TAF UNEE 241700Z 2418/2518 28003MPS 3100 FU SCT020 
      TEMPO 2418/2505 0300 FZFG VV001 
      BECMG 2505/2507 9999 NSW